createdAt,value
2022-08-19T00:01:52.861Z,101471.75
2022-08-19T00:04:23.005Z,101472.69
2022-08-19T00:06:49.705Z,101474.53
2022-08-19T00:09:20.308Z,101477.28
2022-08-19T00:11:47.095Z,101471.88
2022-08-19T00:14:16.587Z,101471.41
2022-08-19T00:16:45.799Z,101471.72
2022-08-19T00:19:12.363Z,101474.94
2022-08-19T00:21:40.548Z,101471.47
2022-08-19T00:24:09.209Z,101471.81
2022-08-19T00:26:36.909Z,101472.19
2022-08-19T00:29:05.250Z,101468.63
2022-08-19T00:31:32.468Z,101471.41
2022-08-19T00:33:59.138Z,101466.53
2022-08-19T00:36:26.419Z,101466.63
2022-08-19T00:38:53.916Z,101472.97
2022-08-19T00:41:22.434Z,101473.78
2022-08-19T00:44:05.448Z,101476.66
2022-08-19T00:46:34.287Z,101466.72
2022-08-19T00:49:03.395Z,101461.22
2022-08-19T00:51:33.481Z,101469.16
2022-08-19T00:54:02.177Z,101477.91
2022-08-19T00:56:30.033Z,101477.97
2022-08-19T00:58:59.312Z,101469.22
2022-08-19T01:01:26.445Z,101485.13
2022-08-19T01:03:58.068Z,101477.53
2022-08-19T01:06:27.052Z,101482.22
2022-08-19T01:08:55.281Z,101472.28
2022-08-19T01:11:22.165Z,101467.94
2022-08-19T01:13:51.166Z,101461.91
2022-08-19T01:16:20.949Z,101469.06
2022-08-19T01:18:48.614Z,101475.09
2022-08-19T01:21:31.536Z,101471.94
2022-08-19T01:23:58.331Z,101466.84
2022-08-19T01:26:26.194Z,101484.34
2022-08-19T01:28:56.153Z,101499.22
2022-08-19T01:31:31.500Z,101495.59
2022-08-19T01:34:00.821Z,101502.41
2022-08-19T01:36:43.196Z,101504.09
2022-08-19T01:39:12.904Z,101500.09
2022-08-19T01:41:39.935Z,101494.88
2022-08-19T01:44:18.044Z,101505.66
2022-08-19T01:46:48.836Z,101508.47
2022-08-19T01:49:16.323Z,101518.00
2022-08-19T01:51:42.972Z,101504.50
2022-08-19T01:54:10.714Z,101503.69
2022-08-19T01:56:37.384Z,101503.66
2022-08-19T01:59:07.971Z,101492.13
2022-08-19T02:01:34.874Z,101499.69
2022-08-19T02:04:04.426Z,101502.47
2022-08-19T02:06:31.086Z,101495.75
2022-08-19T02:08:58.487Z,101498.88
2022-08-19T02:11:34.468Z,101507.72
2022-08-19T02:14:03.800Z,101506.16
2022-08-19T02:16:31.576Z,101509.31
2022-08-19T02:19:01.652Z,101490.97
2022-08-19T02:21:29.667Z,101508.88
2022-08-19T02:23:57.080Z,101515.28
2022-08-19T02:26:24.534Z,101519.25
2022-08-19T02:28:51.174Z,101523.66
2022-08-19T02:31:20.582Z,101521.25
2022-08-19T02:33:47.987Z,101521.97
2022-08-19T02:36:16.762Z,101527.16
2022-08-19T02:38:54.412Z,101527.22
2022-08-19T02:41:28.562Z,101532.34
2022-08-19T02:44:22.806Z,101529.16
2022-08-19T02:46:51.809Z,101520.03
2022-08-19T02:49:19.963Z,101524.41
2022-08-19T02:51:47.759Z,101521.25
2022-08-19T02:54:15.410Z,101522.03
2022-08-19T02:56:44.227Z,101516.81
2022-08-19T02:59:12.750Z,101506.09
2022-08-19T03:01:41.853Z,101514.88
2022-08-19T03:04:13.400Z,101511.66
2022-08-19T03:06:43.234Z,101510.09
2022-08-19T03:09:10.246Z,101508.91
2022-08-19T03:11:37.259Z,101507.31
2022-08-19T03:14:05.680Z,101496.59
2022-08-19T03:16:35.011Z,101486.22
2022-08-19T03:19:02.523Z,101492.63
2022-08-19T03:21:32.433Z,101476.25
2022-08-19T03:24:02.360Z,101489.03
2022-08-19T03:26:29.802Z,101486.63
2022-08-19T03:28:58.580Z,101491.03
2022-08-19T03:31:45.038Z,101490.69
2022-08-19T03:34:18.858Z,101493.09
2022-08-19T03:36:46.933Z,101489.50
2022-08-19T03:39:14.229Z,101494.75
2022-08-19T03:41:45.704Z,101499.09
2022-08-19T03:44:17.820Z,101491.16
2022-08-19T03:46:47.844Z,101500.31
2022-08-19T03:49:15.043Z,101499.91
2022-08-19T03:51:42.929Z,101498.28
2022-08-19T03:54:14.238Z,101504.63
2022-08-19T03:56:42.501Z,101499.88
2022-08-19T03:59:11.842Z,101494.28
2022-08-19T04:01:38.570Z,101496.69
2022-08-19T04:04:05.388Z,101491.50
2022-08-19T04:06:34.954Z,101495.09
2022-08-19T04:09:04.597Z,101493.56
2022-08-19T04:11:43.544Z,101494.75
2022-08-19T04:14:13.462Z,101489.16
2022-08-19T04:16:40.345Z,101501.16
2022-08-19T04:19:07.753Z,101499.97
2022-08-19T04:21:34.713Z,101503.53
2022-08-19T04:24:02.043Z,101512.72
2022-08-19T04:26:34.079Z,101508.72
2022-08-19T04:29:16.329Z,101509.53
2022-08-19T04:31:46.070Z,101514.31
2022-08-19T04:34:15.169Z,101519.91
2022-08-19T04:36:45.629Z,101509.56
2022-08-19T04:39:17.881Z,101518.72
2022-08-19T04:42:03.537Z,101519.53
2022-08-19T04:44:33.278Z,101516.72
2022-08-19T04:47:01.724Z,101533.47
2022-08-19T04:49:28.949Z,101535.44
2022-08-19T04:51:56.357Z,101538.22
2022-08-19T04:54:37.947Z,101528.69
2022-08-19T04:57:08.045Z,101533.47
2022-08-19T04:59:35.428Z,101513.91
2022-08-19T05:02:02.075Z,101519.47
2022-08-19T05:04:33.759Z,101515.47
2022-08-19T05:07:02.089Z,101510.34
2022-08-19T05:09:55.242Z,101525.88
2022-08-19T05:12:16.734Z,101518.28
2022-08-19T05:14:43.798Z,101503.13
2022-08-19T05:20:16.132Z,101497.16
2022-08-19T05:22:44.840Z,101517.47
2022-08-19T05:25:14.616Z,101516.69
2022-08-19T05:27:42.885Z,101512.31
2022-08-19T05:30:10.717Z,101516.31
2022-08-19T05:32:37.418Z,101511.94
2022-08-19T05:35:05.664Z,101530.66
2022-08-19T05:37:32.249Z,101519.09
2022-08-19T05:39:58.909Z,101525.88
2022-08-19T05:42:26.492Z,101511.50
2022-08-19T05:44:53.140Z,101505.88
2022-08-19T05:47:21.164Z,101521.44
2022-08-19T05:49:50.698Z,101512.63
2022-08-19T05:52:18.798Z,101515.72
2022-08-19T05:54:51.099Z,101509.38
2022-08-19T05:57:21.752Z,101498.88
2022-08-19T05:59:49.487Z,101479.38
2022-08-19T06:02:20.020Z,101485.69
2022-08-19T06:04:46.676Z,101484.88
2022-08-19T06:07:13.335Z,101476.09
2022-08-19T06:09:41.038Z,101487.22
2022-08-19T06:12:10.580Z,101490.81
2022-08-19T06:14:41.679Z,101487.66
2022-08-19T06:17:09.329Z,101480.00
2022-08-19T06:19:40.815Z,101486.84
2022-08-19T06:22:08.510Z,101479.44
2022-08-19T06:24:36.221Z,101455.34
2022-08-19T06:27:04.262Z,101473.69
2022-08-19T06:29:31.233Z,101467.13
2022-08-19T06:32:01.093Z,101474.59
2022-08-19T06:34:31.128Z,101473.84
2022-08-19T06:37:02.251Z,101485.03
2022-08-19T06:39:32.020Z,101487.06
2022-08-19T06:42:01.523Z,101487.31
2022-08-19T06:44:31.838Z,101479.56
2022-08-19T06:46:58.712Z,101496.97
2022-08-19T06:49:28.624Z,101488.91
2022-08-19T06:51:57.738Z,101482.44
2022-08-19T06:54:24.537Z,101489.56
2022-08-19T06:56:59.379Z,101493.84
2022-08-19T06:59:29.207Z,101488.97
2022-08-19T07:01:57.936Z,101496.25
2022-08-19T07:04:28.840Z,101499.41
2022-08-19T07:07:20.920Z,101490.09
2022-08-19T07:09:51.847Z,101497.56
2022-08-19T07:12:28.139Z,101483.63
2022-08-19T07:14:56.932Z,101498.63
2022-08-19T07:17:24.445Z,101493.00
2022-08-19T07:19:51.504Z,101501.78
2022-08-19T07:22:23.737Z,101506.94
2022-08-19T07:24:52.105Z,101502.59
2022-08-19T07:27:24.505Z,101508.34
2022-08-19T07:29:57.414Z,101484.50
2022-08-19T07:32:28.513Z,101499.94
2022-08-19T07:34:56.353Z,101503.34
2022-08-19T07:37:27.332Z,101492.31
2022-08-19T07:39:56.423Z,101495.84
2022-08-19T07:42:23.438Z,101489.66
2022-08-19T07:44:50.881Z,101485.72
2022-08-19T07:47:49.810Z,101484.47
2022-08-19T07:50:09.234Z,101482.25
2022-08-19T07:52:39.546Z,101474.41
2022-08-19T07:55:08.140Z,101463.38
2022-08-19T07:57:54.867Z,101445.97
2022-08-19T08:00:23.963Z,101446.13
2022-08-19T08:02:51.812Z,101468.53
2022-08-19T08:05:43.406Z,101466.97
2022-08-19T08:08:29.565Z,101477.00
2022-08-19T08:10:57.067Z,101484.16
2022-08-19T08:13:25.600Z,101500.34
2022-08-19T08:15:56.076Z,101510.25
2022-08-19T08:18:27.477Z,101514.69
2022-08-19T08:20:56.040Z,101508.66
2022-08-19T08:23:23.331Z,101509.53
2022-08-19T08:25:50.258Z,101525.84
2022-08-19T08:28:19.859Z,101512.88
2022-08-19T08:30:50.558Z,101509.41
2022-08-19T08:33:32.896Z,101498.50
2022-08-19T08:36:08.253Z,101512.09
2022-08-19T08:38:40.280Z,101515.47
2022-08-19T08:41:20.426Z,101513.59
2022-08-19T08:43:52.066Z,101509.75
2022-08-19T08:46:46.806Z,101503.97
2022-08-19T08:49:32.432Z,101498.66
2022-08-19T08:52:19.333Z,101489.00
2022-08-19T08:54:55.723Z,101491.63
2022-08-19T08:57:42.462Z,101505.78
2022-08-19T09:00:17.483Z,101503.72
2022-08-19T09:02:45.037Z,101503.38
2022-08-19T09:05:17.859Z,101503.88
2022-08-19T09:08:24.356Z,101503.97
2022-08-19T09:10:55.089Z,101499.34
2022-08-19T09:13:23.240Z,101516.06
2022-08-19T09:15:58.294Z,101522.53
2022-08-19T09:18:25.310Z,101522.00
2022-08-19T09:20:57.147Z,101527.50
2022-08-19T09:23:26.893Z,101509.19
2022-08-19T09:25:53.734Z,101508.09
2022-08-19T09:28:22.364Z,101487.34
2022-08-19T09:30:53.451Z,101469.94
2022-08-19T09:33:20.740Z,101462.56
2022-08-19T09:35:50.081Z,101473.19
2022-08-19T09:38:20.610Z,101463.25
2022-08-19T09:40:47.854Z,101475.38
2022-08-19T09:43:14.419Z,101484.38
2022-08-19T09:45:41.161Z,101463.75
2022-08-19T09:48:07.834Z,101449.47
2022-08-19T09:50:51.914Z,101422.34
2022-08-19T09:53:19.964Z,101448.31
2022-08-19T09:55:46.719Z,101450.00
2022-08-19T09:58:13.303Z,101456.66
2022-08-19T10:00:39.952Z,101452.25
2022-08-19T10:03:07.129Z,101454.72
2022-08-19T10:05:50.211Z,101448.06
2022-08-19T10:08:22.677Z,101446.03
2022-08-19T10:10:54.105Z,101433.41
2022-08-19T10:13:24.598Z,101443.47
2022-08-19T10:15:52.752Z,101438.66
2022-08-19T10:18:21.767Z,101427.81
2022-08-19T10:20:51.423Z,101424.53
2022-08-19T10:23:20.844Z,101413.13
2022-08-19T10:25:48.945Z,101423.50
2022-08-19T10:28:15.563Z,101427.97
2022-08-19T10:30:42.910Z,101435.97
2022-08-19T10:33:11.188Z,101426.69
2022-08-19T10:35:42.656Z,101407.03
2022-08-19T10:38:31.401Z,101416.06
2022-08-19T10:40:59.195Z,101412.56
2022-08-19T10:43:25.998Z,101407.28
2022-08-19T10:46:00.270Z,101408.63
2022-08-19T10:48:27.260Z,101411.41
2022-08-19T10:51:22.912Z,101424.59
2022-08-19T10:53:51.174Z,101448.69
2022-08-19T10:56:37.953Z,101486.63
2022-08-19T10:59:05.531Z,101492.94
2022-08-19T11:01:34.305Z,101495.63
2022-08-19T11:04:02.324Z,101510.47
2022-08-19T11:06:29.254Z,101543.75
2022-08-19T11:08:55.881Z,101569.69
2022-08-19T11:11:23.603Z,101562.31
2022-08-19T11:13:51.110Z,101580.44
2022-08-19T11:16:21.056Z,101574.81
2022-08-19T11:18:51.649Z,101562.31
2022-08-19T11:21:33.716Z,101562.38
2022-08-19T11:24:03.805Z,101571.47
2022-08-19T11:26:32.718Z,101561.25
2022-08-19T11:29:00.556Z,101568.47
2022-08-19T11:31:31.612Z,101581.31
2022-08-19T11:34:00.589Z,101595.22
2022-08-19T11:36:27.393Z,101592.66
2022-08-19T11:38:54.764Z,101601.88
2022-08-19T11:41:26.472Z,101605.34
2022-08-19T11:43:56.720Z,101614.59
2022-08-19T11:46:25.936Z,101602.59
2022-08-19T11:48:53.209Z,101607.47
2022-08-19T11:51:23.207Z,101615.19
2022-08-19T11:53:51.307Z,101591.13
2022-08-19T11:56:19.643Z,101587.78
2022-08-19T11:58:46.738Z,101590.81
2022-08-19T12:01:16.960Z,101573.72
2022-08-19T12:03:46.072Z,101589.28
2022-08-19T12:06:15.524Z,101572.81
2022-08-19T12:08:43.732Z,101571.19
2022-08-19T12:11:12.125Z,101562.22
2022-08-19T12:13:39.957Z,101563.50
2022-08-19T12:16:13.149Z,101547.19
2022-08-19T12:18:47.871Z,101539.41
2022-08-19T12:21:15.953Z,101541.50
2022-08-19T12:23:44.632Z,101525.03
2022-08-19T12:26:12.436Z,101508.47
2022-08-19T12:28:39.714Z,101488.94
2022-08-19T12:31:06.773Z,101481.75
2022-08-19T12:33:33.400Z,101466.72
2022-08-19T12:36:08.565Z,101463.06
2022-08-19T12:38:38.453Z,101449.22
2022-08-19T12:41:06.521Z,101471.66
2022-08-19T12:43:35.659Z,101472.28
2022-08-19T12:46:03.619Z,101452.63
2022-08-19T12:48:34.606Z,101446.47
2022-08-19T12:51:07.072Z,101438.66
2022-08-19T12:53:33.927Z,101434.94
2022-08-19T12:56:01.460Z,101425.16
2022-08-19T12:58:29.983Z,101431.19
2022-08-19T13:00:56.736Z,101423.63
2022-08-19T13:03:28.404Z,101424.66
2022-08-19T13:05:55.012Z,101416.75
2022-08-19T13:08:21.581Z,101421.19
2022-08-19T13:10:48.116Z,101409.59
2022-08-19T13:13:14.706Z,101405.09
2022-08-19T13:15:43.856Z,101391.31
2022-08-19T13:18:11.364Z,101383.06
2022-08-19T13:20:41.601Z,101388.66
2022-08-19T13:23:09.500Z,101381.09
2022-08-19T13:25:37.243Z,101376.38
2022-08-19T13:28:04.487Z,101370.94
2022-08-19T13:30:49.408Z,101371.25
2022-08-19T13:33:16.459Z,101373.97
2022-08-19T13:35:48.096Z,101362.50
2022-08-19T13:38:17.758Z,101381.31
2022-08-19T13:40:44.883Z,101382.91
2022-08-19T13:43:22.412Z,101388.31
2022-08-19T13:45:51.536Z,101380.75
2022-08-19T13:48:19.725Z,101386.94
2022-08-19T13:50:48.367Z,101387.75
2022-08-19T13:53:15.407Z,101396.00
2022-08-19T13:55:43.560Z,101428.28
2022-08-19T13:58:11.718Z,101453.19
2022-08-19T14:00:42.887Z,101485.09
2022-08-19T14:03:09.691Z,101509.38
2022-08-19T14:05:36.805Z,101528.25
2022-08-19T14:08:03.929Z,101534.06
2022-08-19T14:10:32.463Z,101532.88
2022-08-19T14:13:02.148Z,101550.16
2022-08-19T14:15:29.556Z,101541.75
2022-08-19T14:17:56.790Z,101527.50
2022-08-19T14:20:25.845Z,101523.81
2022-08-19T14:22:54.215Z,101507.00
2022-08-19T14:25:24.407Z,101502.81
2022-08-19T14:27:51.781Z,101487.78
2022-08-19T14:30:27.862Z,101484.44
2022-08-19T14:32:55.422Z,101485.66
2022-08-19T14:35:22.937Z,101472.38
2022-08-19T14:37:51.740Z,101467.19
2022-08-19T14:40:23.484Z,101454.53
2022-08-19T14:42:50.079Z,101446.19
2022-08-19T14:45:16.785Z,101432.06
2022-08-19T14:47:45.380Z,101413.13
2022-08-19T14:50:18.398Z,101420.69
2022-08-19T14:52:49.066Z,101426.53
2022-08-19T14:55:17.639Z,101411.09
2022-08-19T14:57:45.417Z,101410.16
2022-08-19T15:00:16.059Z,101411.84
2022-08-19T15:02:45.245Z,101400.66
2022-08-19T15:05:13.633Z,101407.03
2022-08-19T15:07:41.942Z,101403.88
2022-08-19T15:10:10.653Z,101404.31
2022-08-19T15:12:40.745Z,101404.56
2022-08-19T15:15:13.551Z,101411.00
2022-08-19T15:17:46.536Z,101399.81
2022-08-19T15:20:19.204Z,101398.22
2022-08-19T15:22:46.536Z,101416.16
2022-08-19T15:25:15.680Z,101406.03
2022-08-19T15:27:42.673Z,101435.06
2022-08-19T15:30:10.140Z,101439.19
2022-08-19T15:32:37.838Z,101453.03
2022-08-19T15:35:06.419Z,101443.69
2022-08-19T15:37:37.136Z,101454.63
2022-08-19T15:40:06.258Z,101463.00
2022-08-19T15:42:34.020Z,101496.16
2022-08-19T15:45:02.041Z,101508.28
2022-08-19T15:47:35.113Z,101514.19
2022-08-19T15:50:16.346Z,101514.22
2022-08-19T15:52:55.269Z,101541.94
2022-08-19T15:55:33.974Z,101553.84
2022-08-19T15:58:31.895Z,101558.97
2022-08-19T16:01:20.749Z,101553.91
2022-08-19T16:04:11.051Z,101541.06
2022-08-19T16:06:52.243Z,101552.53
2022-08-19T16:09:26.997Z,101529.44
2022-08-19T16:11:56.906Z,101544.75
2022-08-19T16:14:25.138Z,101553.03
2022-08-19T16:16:52.120Z,101550.34
2022-08-19T16:19:19.895Z,101553.03
2022-08-19T16:21:49.706Z,101554.47
2022-08-19T16:24:20.846Z,101556.91
2022-08-19T16:26:48.427Z,101546.88
2022-08-19T16:29:22.108Z,101510.06
2022-08-19T16:32:02.907Z,101498.47
2022-08-19T16:34:30.759Z,101516.25
2022-08-19T16:36:57.575Z,101510.63
2022-08-19T16:39:24.444Z,101514.38
2022-08-19T16:41:51.611Z,101515.50
2022-08-19T16:44:19.488Z,101525.03
2022-08-19T16:46:57.259Z,101538.59
2022-08-19T16:49:53.778Z,101522.06
2022-08-19T16:52:18.361Z,101516.69
2022-08-19T16:54:45.239Z,101527.50
2022-08-19T16:57:12.869Z,101514.78
2022-08-19T16:59:48.185Z,101505.28
2022-08-19T17:02:22.024Z,101505.16
2022-08-19T17:04:58.507Z,101498.09
2022-08-19T17:07:33.108Z,101509.25
2022-08-19T17:10:00.766Z,101487.97
2022-08-19T17:12:31.927Z,101498.88
2022-08-19T17:15:02.788Z,101492.50
2022-08-19T17:17:30.674Z,101484.81
2022-08-19T17:19:59.244Z,101490.03
2022-08-19T17:22:26.024Z,101491.59
2022-08-19T17:24:52.758Z,101481.69
2022-08-19T17:27:22.815Z,101476.28
2022-08-19T17:29:49.383Z,101468.00
2022-08-19T17:32:15.972Z,101471.09
2022-08-19T17:34:51.457Z,101475.88
2022-08-19T17:37:18.267Z,101459.72
2022-08-19T17:39:44.879Z,101460.88
2022-08-19T17:42:11.442Z,101473.84
2022-08-19T17:44:38.019Z,101462.22
2022-08-19T17:47:04.805Z,101467.94
2022-08-19T17:49:33.263Z,101473.84
2022-08-19T17:52:00.203Z,101474.44
2022-08-19T17:54:31.910Z,101473.63
2022-08-19T17:57:01.432Z,101479.81
2022-08-19T17:59:30.040Z,101471.19
2022-08-19T18:01:57.136Z,101465.81
2022-08-19T18:04:25.512Z,101483.69
2022-08-19T18:06:55.095Z,101481.66
2022-08-19T18:09:41.659Z,101484.72
2022-08-19T18:12:12.157Z,101488.41
2022-08-19T18:14:40.252Z,101487.97
2022-08-19T18:17:10.286Z,101491.66
2022-08-19T18:19:43.014Z,101491.94
2022-08-19T18:22:28.311Z,101495.97
2022-08-19T18:24:57.153Z,101501.34
2022-08-19T18:27:25.328Z,101514.00
2022-08-19T18:29:52.435Z,101523.53
2022-08-19T18:32:24.001Z,101532.75
2022-08-19T18:34:50.716Z,101547.13
2022-08-19T18:37:17.492Z,101542.84
2022-08-19T18:40:02.707Z,101542.38
2022-08-19T18:42:58.473Z,101552.63
2022-08-19T18:45:43.632Z,101568.03
2022-08-19T18:48:28.878Z,101583.78
2022-08-19T18:50:57.976Z,101565.78
2022-08-19T18:53:26.497Z,101544.34
2022-08-19T18:55:54.968Z,101540.28
2022-08-19T18:58:32.251Z,101534.03
2022-08-19T19:00:59.809Z,101546.25
2022-08-19T19:03:26.805Z,101550.44
2022-08-19T19:05:53.991Z,101543.81
2022-08-19T19:08:20.908Z,101552.41
2022-08-19T19:10:54.656Z,101545.88
2022-08-19T19:13:21.288Z,101551.13
2022-08-19T19:15:48.058Z,101542.16
2022-08-19T19:18:14.728Z,101554.66
2022-08-19T19:20:41.365Z,101552.25
2022-08-19T19:23:08.587Z,101554.19
2022-08-19T19:25:49.928Z,101566.31
2022-08-19T19:28:18.199Z,101576.38
2022-08-19T19:30:44.961Z,101589.63
2022-08-19T19:33:11.624Z,101597.97
2022-08-19T19:35:38.651Z,101611.31
2022-08-19T19:38:11.691Z,101619.13
2022-08-19T19:40:38.267Z,101635.03
2022-08-19T19:43:06.239Z,101633.69
2022-08-19T19:45:33.501Z,101644.56
2022-08-19T19:48:00.619Z,101655.44
2022-08-19T19:50:30.247Z,101651.63
2022-08-19T19:52:58.411Z,101664.22
2022-08-19T19:55:26.551Z,101662.97
2022-08-19T19:57:54.258Z,101660.13
2022-08-19T20:00:21.948Z,101660.28
2022-08-19T20:02:50.907Z,101668.59
2022-08-19T20:05:20.871Z,101663.75
2022-08-19T20:08:07.107Z,101678.53
2022-08-19T20:10:34.500Z,101667.81
2022-08-19T20:13:02.553Z,101663.81
2022-08-19T20:15:31.521Z,101662.72
2022-08-19T20:18:04.625Z,101670.16
2022-08-19T20:20:31.813Z,101663.31
2022-08-19T20:22:58.694Z,101668.28
2022-08-19T20:25:25.265Z,101664.22
2022-08-19T20:27:51.900Z,101645.72
2022-08-19T20:30:21.382Z,101658.72
2022-08-19T20:32:50.266Z,101658.47
2022-08-19T20:35:19.791Z,101643.56
2022-08-19T20:37:47.102Z,101650.84
2022-08-19T20:40:14.959Z,101651.47
2022-08-19T20:42:43.507Z,101642.47
2022-08-19T20:45:28.038Z,101647.88
2022-08-19T20:47:59.948Z,101630.69
2022-08-19T20:50:30.187Z,101637.56
2022-08-19T20:52:57.502Z,101633.63
2022-08-19T20:55:24.415Z,101640.50
2022-08-19T20:57:51.648Z,101638.22
2022-08-19T21:00:19.019Z,101646.91
2022-08-19T21:02:46.908Z,101640.69
2022-08-19T21:05:14.855Z,101652.72
2022-08-19T21:07:41.463Z,101650.75
2022-08-19T21:10:08.289Z,101658.16
2022-08-19T21:12:34.932Z,101662.88
2022-08-19T21:15:01.750Z,101666.91
2022-08-19T21:17:28.489Z,101670.16
2022-08-19T21:19:55.091Z,101660.22
2022-08-19T21:22:21.768Z,101682.97
2022-08-19T21:24:49.291Z,101685.13
2022-08-19T21:27:15.880Z,101709.78
2022-08-19T21:29:43.208Z,101726.22
2022-08-19T21:32:14.186Z,101734.31
2022-08-19T21:34:41.726Z,101747.91
2022-08-19T21:37:14.776Z,101753.19
2022-08-19T21:39:51.600Z,101762.34
2022-08-19T21:42:18.403Z,101767.22
2022-08-19T21:44:46.017Z,101763.66
2022-08-19T21:47:12.900Z,101781.06
2022-08-19T21:49:39.745Z,101778.88
2022-08-19T21:52:08.300Z,101783.16
2022-08-19T21:54:38.545Z,101774.81
2022-08-19T21:57:10.234Z,101785.97
2022-08-19T21:59:41.272Z,101784.47
2022-08-19T22:02:21.078Z,101786.28
2022-08-19T22:04:50.291Z,101780.84
2022-08-19T22:07:17.056Z,101773.63
2022-08-19T22:09:45.408Z,101776.38
2022-08-19T22:12:23.282Z,101785.94
2022-08-19T22:14:51.719Z,101793.53
2022-08-19T22:17:19.890Z,101765.91
2022-08-19T22:19:47.011Z,101784.19
2022-08-19T22:22:19.229Z,101775.28
2022-08-19T22:24:45.808Z,101744.59
2022-08-19T22:27:12.360Z,101777.75
2022-08-19T22:29:39.529Z,101772.03
2022-08-19T22:32:27.166Z,101765.19
2022-08-19T22:34:56.728Z,101758.13
2022-08-19T22:37:23.365Z,101760.56
2022-08-19T22:39:49.968Z,101759.69
2022-08-19T22:42:20.458Z,101753.41
2022-08-19T22:44:47.062Z,101758.63
2022-08-19T22:47:13.650Z,101767.38
2022-08-19T22:49:40.553Z,101763.53
2022-08-19T22:52:19.253Z,101758.19
2022-08-19T22:54:48.345Z,101762.28
2022-08-19T22:57:16.130Z,101768.72
2022-08-19T22:59:42.863Z,101767.38
2022-08-19T23:02:09.710Z,101756.25
2022-08-19T23:04:36.660Z,101761.44
2022-08-19T23:07:04.505Z,101763.84
2022-08-19T23:09:31.129Z,101762.66
2022-08-19T23:11:57.845Z,101758.72
2022-08-19T23:14:24.413Z,101760.38
2022-08-19T23:16:51.720Z,101768.41
2022-08-19T23:19:20.939Z,101769.19
2022-08-19T23:21:49.192Z,101768.44
2022-08-19T23:24:15.839Z,101765.28
2022-08-19T23:27:02.416Z,101773.25
2022-08-19T23:29:49.320Z,101766.38
2022-08-19T23:32:17.070Z,101776.22
2022-08-19T23:34:44.297Z,101778.94
2022-08-19T23:37:11.021Z,101771.75
2022-08-19T23:39:38.039Z,101767.72
2022-08-19T23:42:11.834Z,101769.34
2022-08-19T23:44:51.431Z,101765.00
2022-08-19T23:47:20.239Z,101768.59
2022-08-19T23:49:48.928Z,101762.25
2022-08-19T23:52:15.477Z,101770.28
2022-08-19T23:54:43.428Z,101759.59
2022-08-19T23:57:14.231Z,101751.28
2022-08-19T23:59:42.495Z,101775.69
